createdAt,value
2019-03-04T00:00:20.392Z,982.38
2019-03-04T00:01:20.465Z,982.34
2019-03-04T00:02:20.415Z,982.30
2019-03-04T00:03:20.396Z,982.35
2019-03-04T00:04:20.360Z,982.33
2019-03-04T00:05:20.369Z,982.29
2019-03-04T00:06:20.323Z,982.37
2019-03-04T00:07:20.313Z,982.36
2019-03-04T00:08:20.338Z,982.23
2019-03-04T00:09:20.374Z,982.16
2019-03-04T00:10:20.296Z,982.22
2019-03-04T00:11:20.290Z,982.05
2019-03-04T00:12:20.262Z,982.05
2019-03-04T00:13:20.303Z,981.99
2019-03-04T00:14:20.242Z,981.94
2019-03-04T00:15:20.566Z,981.77
2019-03-04T00:16:20.217Z,981.83
2019-03-04T00:17:20.228Z,981.90
2019-03-04T00:18:20.194Z,981.88
2019-03-04T00:19:20.184Z,981.80
2019-03-04T00:20:20.176Z,981.78
2019-03-04T00:21:20.844Z,981.82
2019-03-04T00:22:20.161Z,981.81
2019-03-04T00:23:20.143Z,981.82
2019-03-04T00:24:20.290Z,981.84
2019-03-04T00:25:20.121Z,981.78
2019-03-04T00:26:20.110Z,981.71
2019-03-04T00:27:20.126Z,981.70
2019-03-04T00:28:20.173Z,981.69
2019-03-04T00:29:20.137Z,981.60
2019-03-04T00:30:20.074Z,981.62
2019-03-04T00:31:20.068Z,981.59
2019-03-04T00:32:20.051Z,981.35
2019-03-04T00:33:20.067Z,981.48
2019-03-04T00:34:20.028Z,981.49
2019-03-04T00:35:20.017Z,981.54
2019-03-04T00:36:20.047Z,981.65
2019-03-04T00:37:19.992Z,981.60
2019-03-04T00:38:19.978Z,981.51
2019-03-04T00:39:19.991Z,981.47
2019-03-04T00:40:19.961Z,981.56
2019-03-04T00:41:20.039Z,981.57
2019-03-04T00:42:19.942Z,981.37
2019-03-04T00:43:19.949Z,981.41
2019-03-04T00:44:19.917Z,981.29
2019-03-04T00:45:19.903Z,981.31
2019-03-04T00:46:19.969Z,981.24
2019-03-04T00:47:19.893Z,981.14
2019-03-04T00:48:19.895Z,981.20
2019-03-04T00:49:19.867Z,981.08
2019-03-04T00:50:19.850Z,980.97
2019-03-04T00:51:19.920Z,980.92
2019-03-04T00:52:19.848Z,980.89
2019-03-04T00:53:19.842Z,980.77
2019-03-04T00:54:19.814Z,980.84
2019-03-04T00:55:19.829Z,980.80
2019-03-04T00:56:19.787Z,980.66
2019-03-04T00:57:19.776Z,980.69
2019-03-04T00:58:19.762Z,980.71
2019-03-04T00:59:19.857Z,980.64
2019-03-04T01:00:19.748Z,980.52
2019-03-04T01:01:19.915Z,980.50
2019-03-04T01:02:19.722Z,980.46
2019-03-04T01:03:19.730Z,980.33
2019-03-04T01:04:19.715Z,980.22
2019-03-04T01:05:19.782Z,980.20
2019-03-04T01:06:19.683Z,980.22
2019-03-04T01:07:19.671Z,980.23
2019-03-04T01:08:19.687Z,980.24
2019-03-04T01:09:19.644Z,980.25
2019-03-04T01:10:19.634Z,980.14
2019-03-04T01:11:19.625Z,980.22
2019-03-04T01:12:19.616Z,980.27
2019-03-04T01:13:19.626Z,980.18
2019-03-04T01:14:19.614Z,980.10
2019-03-04T01:15:19.583Z,980.12
2019-03-04T01:16:19.571Z,979.90
2019-03-04T01:17:19.558Z,979.90
2019-03-04T01:18:19.553Z,979.86
2019-03-04T01:19:19.558Z,979.99
2019-03-04T01:20:19.529Z,980.28
2019-03-04T01:21:19.514Z,979.96
2019-03-04T01:22:19.503Z,979.97
2019-03-04T01:23:19.495Z,980.06
2019-03-04T01:24:19.503Z,980.04
2019-03-04T01:25:19.477Z,980.30
2019-03-04T01:26:19.466Z,980.22
2019-03-04T01:27:19.455Z,980.23
2019-03-04T01:28:19.443Z,980.15
2019-03-04T01:29:19.446Z,980.17
2019-03-04T01:30:19.416Z,980.28
2019-03-04T01:31:19.407Z,980.20
2019-03-04T01:32:19.399Z,980.25
2019-03-04T01:33:19.395Z,980.19
2019-03-04T01:34:19.396Z,980.25
2019-03-04T01:35:19.367Z,980.18
2019-03-04T01:36:19.356Z,980.22
2019-03-04T01:37:19.363Z,980.27
2019-03-04T01:38:19.362Z,980.24
2019-03-04T01:39:19.323Z,980.16
2019-03-04T01:40:19.312Z,980.27
2019-03-04T01:41:19.323Z,980.07
2019-03-04T01:42:19.287Z,980.13
2019-03-04T01:43:19.280Z,979.96
2019-03-04T01:44:19.286Z,979.96
2019-03-04T01:45:19.309Z,980.02
2019-03-04T01:46:19.252Z,980.05
2019-03-04T01:47:19.237Z,979.94
2019-03-04T01:48:19.224Z,979.91
2019-03-04T01:49:19.228Z,979.82
2019-03-04T01:50:19.207Z,979.90
2019-03-04T01:51:19.213Z,979.79
2019-03-04T01:52:19.183Z,979.68
2019-03-04T01:53:19.169Z,979.65
2019-03-04T01:54:19.175Z,979.49
2019-03-04T01:55:19.197Z,979.58
2019-03-04T01:56:19.141Z,979.59
2019-03-04T01:57:19.151Z,979.76
2019-03-04T01:58:19.129Z,979.81
2019-03-04T01:59:19.126Z,979.74
2019-03-04T02:00:19.095Z,979.74
2019-03-04T02:01:19.083Z,979.53
2019-03-04T02:02:19.071Z,979.48
2019-03-04T02:03:19.063Z,979.55
2019-03-04T02:04:19.079Z,979.55
2019-03-04T02:05:19.048Z,979.39
2019-03-04T02:06:19.035Z,979.37
2019-03-04T02:07:19.019Z,979.34
2019-03-04T02:08:19.018Z,979.06
2019-03-04T02:09:19.006Z,979.09
2019-03-04T02:10:19.013Z,979.00
2019-03-04T02:11:18.985Z,979.00
2019-03-04T02:12:18.998Z,978.99
2019-03-04T02:13:18.952Z,978.84
2019-03-04T02:14:18.975Z,978.74
2019-03-04T02:15:19.119Z,978.93
2019-03-04T02:16:18.926Z,978.94
2019-03-04T02:17:18.916Z,978.92
2019-03-04T02:18:18.984Z,978.86
2019-03-04T02:19:18.895Z,978.75
2019-03-04T02:20:18.880Z,978.81
2019-03-04T02:21:18.883Z,978.72
2019-03-04T02:22:18.864Z,978.72
2019-03-04T02:23:18.868Z,978.82
2019-03-04T02:24:18.838Z,978.85
2019-03-04T02:25:18.824Z,978.81
2019-03-04T02:26:18.813Z,979.10
2019-03-04T02:27:18.828Z,979.15
2019-03-04T02:28:18.798Z,979.04
2019-03-04T02:29:18.788Z,978.94
2019-03-04T02:30:18.778Z,978.91
2019-03-04T02:31:18.783Z,978.90
2019-03-04T02:32:18.759Z,978.75
2019-03-04T02:33:18.768Z,978.51
2019-03-04T02:34:18.741Z,978.44
2019-03-04T02:35:18.768Z,978.45
2019-03-04T02:36:18.849Z,978.40
2019-03-04T02:37:18.703Z,978.50
2019-03-04T02:38:18.687Z,978.24
2019-03-04T02:39:18.708Z,977.99
2019-03-04T02:40:18.669Z,978.07
2019-03-04T02:41:27.981Z,977.86
2019-03-04T02:42:18.648Z,977.83
2019-03-04T02:43:18.657Z,977.84
2019-03-04T02:44:18.641Z,977.75
2019-03-04T02:45:18.613Z,977.81
2019-03-04T02:46:18.604Z,977.60
2019-03-04T02:47:18.613Z,977.69
2019-03-04T02:48:18.591Z,977.54
2019-03-04T02:49:18.638Z,977.72
2019-03-04T02:50:18.570Z,977.76
2019-03-04T02:51:18.554Z,978.05
2019-03-04T02:52:18.569Z,977.85
2019-03-04T02:53:18.543Z,978.06
2019-03-04T02:54:18.524Z,977.95
2019-03-04T02:55:18.601Z,977.95
2019-03-04T02:56:18.507Z,977.87
2019-03-04T02:57:18.484Z,977.89
2019-03-04T02:58:18.490Z,977.88
2019-03-04T02:59:18.461Z,977.76
2019-03-04T03:00:18.480Z,977.69
2019-03-04T03:01:18.459Z,977.74
2019-03-04T03:02:18.431Z,977.72
2019-03-04T03:03:18.440Z,977.63
2019-03-04T03:04:18.454Z,977.77
2019-03-04T03:05:18.424Z,977.64
2019-03-04T03:06:18.402Z,977.57
2019-03-04T03:07:18.372Z,977.62
2019-03-04T03:08:18.628Z,977.59
2019-03-04T03:09:18.377Z,977.70
2019-03-04T03:10:18.343Z,977.49
2019-03-04T03:11:18.373Z,977.56
2019-03-04T03:12:18.496Z,977.53
2019-03-04T03:13:18.329Z,977.48
2019-03-04T03:14:18.307Z,977.49
2019-03-04T03:15:18.295Z,977.56
2019-03-04T03:16:18.297Z,977.42
2019-03-04T03:17:18.269Z,977.44
2019-03-04T03:18:18.258Z,977.46
2019-03-04T03:19:18.250Z,977.34
2019-03-04T03:20:18.242Z,977.35
2019-03-04T03:21:18.244Z,977.15
2019-03-04T03:22:18.239Z,977.18
2019-03-04T03:23:18.210Z,977.13
2019-03-04T03:24:18.192Z,977.14
2019-03-04T03:25:18.183Z,977.11
2019-03-04T03:26:18.192Z,977.10
2019-03-04T03:27:18.168Z,977.08
2019-03-04T03:28:18.177Z,977.07
2019-03-04T03:29:18.228Z,976.95
2019-03-04T03:30:18.157Z,977.04
2019-03-04T03:31:18.133Z,976.89
2019-03-04T03:32:18.113Z,976.77
2019-03-04T03:33:18.354Z,976.73
2019-03-04T03:34:18.101Z,976.63
2019-03-04T03:35:18.087Z,977.00
2019-03-04T03:36:18.120Z,977.02
2019-03-04T03:37:18.055Z,976.91
2019-03-04T03:38:18.141Z,976.96
2019-03-04T03:39:18.222Z,976.74
2019-03-04T03:40:18.026Z,976.63
2019-03-04T03:41:18.013Z,976.64
2019-03-04T03:42:19.146Z,976.46
2019-03-04T03:43:17.989Z,976.31
2019-03-04T03:44:18.035Z,976.30
2019-03-04T03:45:18.038Z,976.10
2019-03-04T03:46:17.963Z,976.05
2019-03-04T03:47:17.957Z,976.11
2019-03-04T03:48:18.002Z,975.96
2019-03-04T03:49:17.922Z,975.96
2019-03-04T03:50:17.913Z,975.89
2019-03-04T03:51:17.901Z,975.99
2019-03-04T03:52:17.896Z,975.95
2019-03-04T03:53:17.881Z,975.97
2019-03-04T03:54:17.890Z,975.85
2019-03-04T03:55:17.880Z,976.01
2019-03-04T03:56:17.943Z,975.98
2019-03-04T03:57:17.855Z,975.93
2019-03-04T03:58:17.829Z,976.06
2019-03-04T03:59:17.841Z,976.05
2019-03-04T04:00:17.806Z,976.05
2019-03-04T04:01:17.793Z,975.92
2019-03-04T04:02:17.802Z,975.79
2019-03-04T04:03:17.769Z,975.96
2019-03-04T04:04:17.788Z,976.00
2019-03-04T04:05:17.762Z,975.72
2019-03-04T04:06:17.742Z,975.54
2019-03-04T04:07:17.753Z,975.41
2019-03-04T04:08:17.738Z,975.47
2019-03-04T04:09:17.741Z,975.56
2019-03-04T04:10:17.697Z,975.38
2019-03-04T04:11:17.683Z,975.42
2019-03-04T04:12:17.698Z,975.56
2019-03-04T04:13:17.669Z,975.59
2019-03-04T04:14:17.654Z,975.70
2019-03-04T04:15:17.641Z,975.69
2019-03-04T04:16:17.666Z,975.69
2019-03-04T04:17:17.630Z,975.64
2019-03-04T04:18:17.613Z,975.63
2019-03-04T04:19:17.725Z,975.77
2019-03-04T04:20:17.704Z,975.65
2019-03-04T04:21:17.646Z,975.40
2019-03-04T04:22:17.599Z,975.48
2019-03-04T04:23:17.554Z,975.55
2019-03-04T04:24:17.552Z,975.36
2019-03-04T04:25:17.545Z,975.35
2019-03-04T04:26:17.533Z,975.30
2019-03-04T04:27:17.520Z,975.45
2019-03-04T04:28:17.578Z,975.33
2019-03-04T04:29:17.492Z,975.25
2019-03-04T04:30:17.493Z,975.09
2019-03-04T04:31:17.488Z,974.99
2019-03-04T04:32:17.459Z,975.21
2019-03-04T04:33:17.448Z,974.72
2019-03-04T04:34:17.456Z,974.47
2019-03-04T04:35:17.516Z,974.68
2019-03-04T04:36:17.453Z,974.97
2019-03-04T04:37:17.412Z,974.51
2019-03-04T04:38:17.521Z,974.50
2019-03-04T04:39:17.396Z,974.29
2019-03-04T04:40:17.376Z,974.52
2019-03-04T04:41:17.362Z,974.71
2019-03-04T04:42:17.350Z,974.59
2019-03-04T04:43:17.361Z,974.55
2019-03-04T04:44:17.347Z,974.79
2019-03-04T04:45:17.436Z,974.61
2019-03-04T04:46:17.311Z,974.56
2019-03-04T04:47:17.299Z,974.48
2019-03-04T04:48:17.318Z,974.41
2019-03-04T04:49:17.307Z,974.61
2019-03-04T04:50:17.272Z,974.73
2019-03-04T04:51:17.275Z,974.67
2019-03-04T04:52:17.379Z,974.73
2019-03-04T04:53:17.348Z,974.76
2019-03-04T04:54:17.221Z,974.93
2019-03-04T04:55:17.230Z,974.88
2019-03-04T04:56:17.208Z,974.83
2019-03-04T04:57:17.195Z,974.93
2019-03-04T04:58:17.210Z,974.85
2019-03-04T04:59:17.172Z,974.84
2019-03-04T05:00:17.162Z,974.96
2019-03-04T05:01:17.211Z,974.98
2019-03-04T05:02:17.197Z,974.76
2019-03-04T05:03:17.149Z,974.74
2019-03-04T05:04:17.116Z,974.77
2019-03-04T05:05:17.274Z,974.75
2019-03-04T05:06:17.175Z,974.83
2019-03-04T05:07:17.093Z,974.82
2019-03-04T05:08:17.078Z,974.79
2019-03-04T05:09:17.069Z,974.82
2019-03-04T05:10:17.348Z,974.76
2019-03-04T05:11:17.075Z,974.46
2019-03-04T05:12:17.047Z,974.63
2019-03-04T05:13:17.016Z,974.50
2019-03-04T05:14:17.007Z,974.50
2019-03-04T05:15:17.012Z,974.66
2019-03-04T05:16:17.529Z,974.70
2019-03-04T05:17:16.983Z,974.54
2019-03-04T05:18:17.029Z,974.48
2019-03-04T05:19:16.973Z,974.40
2019-03-04T05:20:16.949Z,974.43
2019-03-04T05:21:16.937Z,974.49
2019-03-04T05:22:16.965Z,974.26
2019-03-04T05:23:17.030Z,974.22
2019-03-04T05:24:16.934Z,974.23
2019-03-04T05:25:16.888Z,974.13
2019-03-04T05:26:16.894Z,974.26
2019-03-04T05:27:16.891Z,974.13
2019-03-04T05:28:16.860Z,974.14
2019-03-04T05:29:16.869Z,974.22
2019-03-04T05:30:16.926Z,974.32
2019-03-04T05:31:16.854Z,974.30
2019-03-04T05:32:16.820Z,974.32
2019-03-04T05:33:16.801Z,974.22
2019-03-04T05:34:16.798Z,974.34
2019-03-04T05:35:16.786Z,974.28
2019-03-04T05:36:16.817Z,974.31
2019-03-04T05:37:16.777Z,974.22
2019-03-04T05:38:16.753Z,974.21
2019-03-04T05:39:16.756Z,974.19
2019-03-04T05:40:16.855Z,974.03
2019-03-04T05:41:16.723Z,974.06
2019-03-04T05:42:16.786Z,974.16
2019-03-04T05:43:16.710Z,974.07
2019-03-04T05:44:16.688Z,973.94
2019-03-04T05:45:16.673Z,973.92
2019-03-04T05:46:16.662Z,974.08
2019-03-04T05:47:16.654Z,974.11
2019-03-04T05:48:16.678Z,973.98
2019-03-04T05:49:16.723Z,973.95
2019-03-04T05:50:17.119Z,973.94
2019-03-04T05:51:16.610Z,973.90
2019-03-04T05:52:16.608Z,973.90
2019-03-04T05:53:16.611Z,973.91
2019-03-04T05:54:16.600Z,973.90
2019-03-04T05:55:16.570Z,973.74
2019-03-04T05:56:16.560Z,973.73
2019-03-04T05:57:16.557Z,973.81
2019-03-04T05:58:16.532Z,973.77
2019-03-04T05:59:19.706Z,973.73
2019-03-04T06:00:16.523Z,973.73
2019-03-04T06:01:16.507Z,973.66
2019-03-04T06:02:16.497Z,973.67
2019-03-04T06:03:16.484Z,973.53
2019-03-04T06:04:16.475Z,973.74
2019-03-04T06:05:16.482Z,973.59
2019-03-04T06:06:16.452Z,973.60
2019-03-04T06:07:16.440Z,973.60
2019-03-04T06:08:16.429Z,973.61
2019-03-04T06:09:16.417Z,973.61
2019-03-04T06:10:16.408Z,973.51
2019-03-04T06:11:16.415Z,973.42
2019-03-04T06:12:16.401Z,973.25
2019-03-04T06:13:16.384Z,973.31
2019-03-04T06:14:16.368Z,973.25
2019-03-04T06:15:16.373Z,973.30
2019-03-04T06:16:16.341Z,973.17
2019-03-04T06:17:16.329Z,973.16
2019-03-04T06:18:16.318Z,973.17
2019-03-04T06:19:16.308Z,973.03
2019-03-04T06:20:16.318Z,972.87
2019-03-04T06:21:16.298Z,973.05
2019-03-04T06:22:16.272Z,973.16
2019-03-04T06:23:16.274Z,972.98
2019-03-04T06:24:16.256Z,972.88
2019-03-04T06:25:16.268Z,973.00
2019-03-04T06:26:16.256Z,972.83
2019-03-04T06:27:16.233Z,972.83
2019-03-04T06:28:16.211Z,972.87
2019-03-04T06:29:16.197Z,972.86
2019-03-04T06:30:16.210Z,972.66
2019-03-04T06:31:16.180Z,972.88
2019-03-04T06:32:16.175Z,972.89
2019-03-04T06:33:16.163Z,973.14
2019-03-04T06:34:16.153Z,973.46
2019-03-04T06:35:16.172Z,974.49
2019-03-04T06:36:16.133Z,975.09
2019-03-04T06:37:16.112Z,975.85
2019-03-04T06:38:16.135Z,975.27
2019-03-04T06:39:16.126Z,975.40
2019-03-04T06:40:16.095Z,975.41
2019-03-04T06:41:16.088Z,975.39
2019-03-04T06:42:16.068Z,975.18
2019-03-04T06:43:16.074Z,975.34
2019-03-04T06:44:16.046Z,975.05
2019-03-04T06:45:16.038Z,975.16
2019-03-04T06:46:16.036Z,975.39
2019-03-04T06:47:16.013Z,975.35
2019-03-04T06:48:16.014Z,975.26
2019-03-04T06:49:15.983Z,975.49
2019-03-04T06:50:15.974Z,975.53
2019-03-04T06:51:15.984Z,975.67
2019-03-04T06:52:15.960Z,975.48
2019-03-04T06:53:15.963Z,975.49
2019-03-04T06:54:15.932Z,975.68
2019-03-04T06:55:15.949Z,975.53
2019-03-04T06:56:16.000Z,975.40
2019-03-04T06:57:15.928Z,975.59
2019-03-04T06:58:15.911Z,975.53
2019-03-04T06:59:15.928Z,975.62
2019-03-04T07:00:15.906Z,975.49
2019-03-04T07:01:15.881Z,975.69
2019-03-04T07:02:15.844Z,975.46
2019-03-04T07:03:15.857Z,975.49
2019-03-04T07:04:15.834Z,975.53
2019-03-04T07:05:15.821Z,975.45
2019-03-04T07:06:15.810Z,975.67
2019-03-04T07:07:15.816Z,975.82
2019-03-04T07:08:15.781Z,975.66
2019-03-04T07:09:15.769Z,975.50
2019-03-04T07:10:15.767Z,975.58
2019-03-04T07:11:15.755Z,975.27
2019-03-04T07:12:15.772Z,975.28
2019-03-04T07:13:15.759Z,975.09
2019-03-04T07:14:15.716Z,975.25
2019-03-04T07:15:15.709Z,974.82
2019-03-04T07:16:15.698Z,974.82
2019-03-04T07:17:15.689Z,974.63
2019-03-04T07:18:15.687Z,974.42
2019-03-04T07:19:15.689Z,974.26
2019-03-04T07:20:15.663Z,974.36
2019-03-04T07:21:15.680Z,974.51
2019-03-04T07:22:15.639Z,974.41
2019-03-04T07:23:15.641Z,974.54
2019-03-04T07:24:15.630Z,974.48
2019-03-04T07:25:15.602Z,974.55
2019-03-04T07:26:15.589Z,974.53
2019-03-04T07:27:15.576Z,974.56
2019-03-04T07:28:15.587Z,974.62
2019-03-04T07:29:15.584Z,974.85
2019-03-04T07:30:15.554Z,974.70
2019-03-04T07:31:15.536Z,974.65
2019-03-04T07:32:15.524Z,974.74
2019-03-04T07:33:15.509Z,974.62
2019-03-04T07:34:15.506Z,974.71
2019-03-04T07:35:15.511Z,974.72
2019-03-04T07:36:15.494Z,974.75
2019-03-04T07:37:15.480Z,974.71
2019-03-04T07:38:15.464Z,974.91
2019-03-04T07:39:15.453Z,975.00
2019-03-04T07:40:16.419Z,974.95
2019-03-04T07:41:15.423Z,974.89
2019-03-04T07:42:15.454Z,974.67
2019-03-04T07:43:15.587Z,974.84
2019-03-04T07:44:15.402Z,974.88
2019-03-04T07:45:15.455Z,974.77
2019-03-04T07:46:15.382Z,974.82
2019-03-04T07:47:15.362Z,974.84
2019-03-04T07:48:15.355Z,974.94
2019-03-04T07:49:15.353Z,974.80
2019-03-04T07:50:15.361Z,974.82
2019-03-04T07:51:15.339Z,974.76
2019-03-04T07:52:15.319Z,974.83
2019-03-04T07:53:15.301Z,974.83
2019-03-04T07:54:15.284Z,974.85
2019-03-04T07:55:15.299Z,974.90
2019-03-04T07:56:15.274Z,974.87
2019-03-04T07:57:15.259Z,974.95
2019-03-04T07:58:15.241Z,974.94
2019-03-04T07:59:15.250Z,974.89
2019-03-04T08:00:15.225Z,974.86
2019-03-04T08:01:15.218Z,974.83
2019-03-04T08:02:15.237Z,975.02
2019-03-04T08:03:15.259Z,974.83
2019-03-04T08:04:15.179Z,974.87
2019-03-04T08:05:15.168Z,975.00
2019-03-04T08:06:15.158Z,974.92
2019-03-04T08:07:15.167Z,974.79
2019-03-04T08:08:15.145Z,974.81
2019-03-04T08:09:15.137Z,974.87
2019-03-04T08:10:15.156Z,974.81
2019-03-04T08:11:15.108Z,974.80
2019-03-04T08:12:15.097Z,974.92
2019-03-04T08:13:15.097Z,974.80
2019-03-04T08:14:15.076Z,974.90
2019-03-04T08:15:15.080Z,975.01
2019-03-04T08:16:15.071Z,974.81
2019-03-04T08:17:15.037Z,974.74
2019-03-04T08:18:15.048Z,974.80
2019-03-04T08:19:15.017Z,974.89
2019-03-04T08:20:15.009Z,974.82
2019-03-04T08:21:15.027Z,974.87
2019-03-04T08:22:14.996Z,974.73
2019-03-04T08:23:15.003Z,974.74
2019-03-04T08:24:14.983Z,974.94
2019-03-04T08:25:15.021Z,974.78
2019-03-04T08:26:14.971Z,974.85
2019-03-04T08:27:14.931Z,974.89
2019-03-04T08:28:14.922Z,974.84
2019-03-04T08:29:14.914Z,974.95
2019-03-04T08:30:14.898Z,974.84
2019-03-04T08:31:14.914Z,974.96
2019-03-04T08:32:14.880Z,974.92
2019-03-04T08:33:14.873Z,974.96
2019-03-04T08:34:14.864Z,974.99
2019-03-04T08:35:14.846Z,974.82
2019-03-04T08:36:14.858Z,974.98
2019-03-04T08:37:14.842Z,975.02
2019-03-04T08:38:14.825Z,974.87
2019-03-04T08:39:14.802Z,974.96
2019-03-04T08:40:14.793Z,975.00
2019-03-04T08:41:14.802Z,975.19
2019-03-04T08:42:14.795Z,975.02
2019-03-04T08:43:14.766Z,975.02
2019-03-04T08:44:14.754Z,975.01
2019-03-04T08:45:14.767Z,974.93
2019-03-04T08:46:14.732Z,975.07
2019-03-04T08:47:14.753Z,975.07
2019-03-04T08:48:14.705Z,974.98
2019-03-04T08:49:14.700Z,975.16
2019-03-04T08:50:14.681Z,975.12
2019-03-04T08:51:14.688Z,975.12
2019-03-04T08:52:14.662Z,975.35
2019-03-04T08:53:14.659Z,974.81
2019-03-04T08:54:14.636Z,975.26
2019-03-04T08:55:14.628Z,975.21
2019-03-04T08:56:14.639Z,975.20
2019-03-04T08:57:14.627Z,975.23
2019-03-04T08:58:14.620Z,975.21
2019-03-04T08:59:14.588Z,975.34
2019-03-04T09:00:14.573Z,975.02
2019-03-04T09:01:14.562Z,975.18
2019-03-04T09:02:14.581Z,975.17
2019-03-04T09:03:14.546Z,975.19
2019-03-04T09:04:14.542Z,975.21
2019-03-04T09:05:14.528Z,975.20
2019-03-04T09:06:14.538Z,975.12
2019-03-04T09:07:14.538Z,975.12
2019-03-04T09:08:14.609Z,975.21
2019-03-04T09:09:14.482Z,975.06
2019-03-04T09:10:15.048Z,975.02
2019-03-04T09:11:14.493Z,975.09
2019-03-04T09:12:14.485Z,974.87
2019-03-04T09:13:14.493Z,975.14
2019-03-04T09:14:14.443Z,975.19
2019-03-04T09:15:14.430Z,975.19
2019-03-04T09:16:14.419Z,975.21
2019-03-04T09:17:14.435Z,975.20
2019-03-04T09:18:14.387Z,975.14
2019-03-04T09:19:14.400Z,975.01
2019-03-04T09:20:14.380Z,974.93
2019-03-04T09:21:14.359Z,975.09
2019-03-04T09:22:14.360Z,975.10
2019-03-04T09:23:14.330Z,975.01
2019-03-04T09:24:14.366Z,975.11
2019-03-04T09:25:14.318Z,975.14
2019-03-04T09:26:14.332Z,974.92
2019-03-04T09:27:14.353Z,975.18
2019-03-04T09:28:14.279Z,974.99
2019-03-04T09:29:14.272Z,975.13
2019-03-04T09:30:14.270Z,975.05
2019-03-04T09:31:14.245Z,974.98
2019-03-04T09:32:14.230Z,975.07
2019-03-04T09:33:14.216Z,975.07
2019-03-04T09:34:14.212Z,974.96
2019-03-04T09:35:14.222Z,975.08
2019-03-04T09:36:14.190Z,975.04
2019-03-04T09:37:14.174Z,975.04
2019-03-04T09:38:14.161Z,974.88
2019-03-04T09:39:14.151Z,974.95
2019-03-04T09:40:14.147Z,975.05
2019-03-04T09:41:14.159Z,975.12
2019-03-04T09:42:14.124Z,974.92
2019-03-04T09:43:14.111Z,974.95
2019-03-04T09:44:14.101Z,975.19
2019-03-04T09:45:14.095Z,975.09
2019-03-04T09:46:14.074Z,975.04
2019-03-04T09:47:14.120Z,975.14
2019-03-04T09:48:14.085Z,975.06
2019-03-04T09:49:14.048Z,975.06
2019-03-04T09:50:14.034Z,975.16
2019-03-04T09:51:23.855Z,974.97
2019-03-04T09:52:15.011Z,975.01
2019-03-04T09:53:14.033Z,974.91
2019-03-04T09:54:13.993Z,974.76
2019-03-04T09:55:13.980Z,974.86
2019-03-04T09:56:13.970Z,974.92
2019-03-04T09:57:13.954Z,975.09
2019-03-04T09:58:13.943Z,974.89
2019-03-04T09:59:13.953Z,974.75
2019-03-04T10:00:13.934Z,974.63
2019-03-04T10:01:13.919Z,974.80
2019-03-04T10:02:13.913Z,974.75
2019-03-04T10:03:13.900Z,974.82
2019-03-04T10:04:13.909Z,974.76
2019-03-04T10:05:13.870Z,974.88
2019-03-04T10:06:13.864Z,974.90
2019-03-04T10:07:13.852Z,974.81
2019-03-04T10:08:13.846Z,974.83
2019-03-04T10:09:13.869Z,974.91
2019-03-04T10:10:15.925Z,975.04
2019-03-04T10:11:13.810Z,974.97
2019-03-04T10:12:13.812Z,975.02
2019-03-04T10:13:13.817Z,974.89
2019-03-04T10:14:13.778Z,974.78
2019-03-04T10:15:13.768Z,975.02
2019-03-04T10:16:18.733Z,975.02
2019-03-04T10:17:14.736Z,975.02
2019-03-04T10:18:13.731Z,975.16
2019-03-04T10:19:13.740Z,974.96
2019-03-04T10:20:13.714Z,975.02
2019-03-04T10:21:13.725Z,974.99
2019-03-04T10:22:13.704Z,975.01
2019-03-04T10:23:13.685Z,974.92
2019-03-04T10:24:13.668Z,975.01
2019-03-04T10:25:13.658Z,975.08
2019-03-04T10:26:22.147Z,975.03
2019-03-04T10:27:14.655Z,975.03
2019-03-04T10:28:13.622Z,975.15
2019-03-04T10:29:13.638Z,975.14
2019-03-04T10:30:13.620Z,975.13
2019-03-04T10:31:13.617Z,975.08
2019-03-04T10:32:13.587Z,974.95
2019-03-04T10:33:13.573Z,974.98
2019-03-04T10:34:13.589Z,975.02
2019-03-04T10:35:13.550Z,974.97
2019-03-04T10:36:13.536Z,974.98
2019-03-04T10:37:13.525Z,975.06
2019-03-04T10:38:22.337Z,974.93
2019-03-04T10:39:14.532Z,974.94
2019-03-04T10:40:15.541Z,974.89
2019-03-04T10:41:13.499Z,974.92
2019-03-04T10:42:13.485Z,974.89
2019-03-04T10:43:13.463Z,975.07
2019-03-04T10:44:13.478Z,975.04
2019-03-04T10:45:13.448Z,974.93
2019-03-04T10:46:13.456Z,974.93
2019-03-04T10:47:13.420Z,975.05
2019-03-04T10:48:13.420Z,975.01
2019-03-04T10:49:13.411Z,975.17
2019-03-04T10:50:13.465Z,975.15
2019-03-04T10:51:13.407Z,975.08
2019-03-04T10:52:13.365Z,974.98
2019-03-04T10:53:13.357Z,975.06
2019-03-04T10:54:13.342Z,975.04
2019-03-04T10:55:13.333Z,974.83
2019-03-04T10:56:13.341Z,974.82
2019-03-04T10:57:13.369Z,974.94
2019-03-04T10:58:13.313Z,974.88
2019-03-04T10:59:13.290Z,974.89
2019-03-04T11:00:13.300Z,974.85
2019-03-04T11:01:13.295Z,974.90
2019-03-04T11:02:13.276Z,974.94
2019-03-04T11:03:13.252Z,974.94
2019-03-04T11:04:13.243Z,974.86
2019-03-04T11:05:13.246Z,974.89
2019-03-04T11:06:13.216Z,974.83
2019-03-04T11:07:13.226Z,974.70
2019-03-04T11:08:13.205Z,974.79
2019-03-04T11:09:13.179Z,974.81
2019-03-04T11:10:13.173Z,974.68
2019-03-04T11:11:13.164Z,974.73
2019-03-04T11:12:14.164Z,974.76
2019-03-04T11:13:13.189Z,974.79
2019-03-04T11:14:13.170Z,974.77
2019-03-04T11:15:13.118Z,974.71
2019-03-04T11:16:13.119Z,974.70
2019-03-04T11:17:13.096Z,974.69
2019-03-04T11:18:13.095Z,974.68
2019-03-04T11:19:13.090Z,974.63
2019-03-04T11:20:13.067Z,974.60
2019-03-04T11:21:13.048Z,974.53
2019-03-04T11:22:13.038Z,974.52
2019-03-04T11:23:15.014Z,974.54
2019-03-04T11:24:13.045Z,974.48
2019-03-04T11:25:13.019Z,974.49
2019-03-04T11:26:12.995Z,974.52
2019-03-04T11:27:12.985Z,974.43
2019-03-04T11:28:12.995Z,974.45
2019-03-04T11:29:13.464Z,974.26
2019-03-04T11:30:12.966Z,974.32
2019-03-04T11:31:12.960Z,974.30
2019-03-04T11:32:12.974Z,974.37
2019-03-04T11:33:12.961Z,974.27
2019-03-04T11:34:12.917Z,974.34
2019-03-04T11:35:12.924Z,974.35
2019-03-04T11:36:12.890Z,974.44
2019-03-04T11:37:12.885Z,974.67
2019-03-04T11:38:12.872Z,974.92
2019-03-04T11:39:12.863Z,975.09
2019-03-04T11:40:12.879Z,975.59
2019-03-04T11:41:12.832Z,975.73
2019-03-04T11:42:12.842Z,975.91
2019-03-04T11:43:12.868Z,975.87
2019-03-04T11:44:13.129Z,975.92
2019-03-04T11:45:12.816Z,976.05
2019-03-04T11:46:12.801Z,975.94
2019-03-04T11:47:12.777Z,975.88
2019-03-04T11:48:12.765Z,975.93
2019-03-04T11:49:12.755Z,975.91
2019-03-04T11:50:12.743Z,975.85
2019-03-04T11:51:12.746Z,975.91
2019-03-04T11:52:12.734Z,975.85
2019-03-04T11:53:12.726Z,975.93
2019-03-04T11:54:12.761Z,975.98
2019-03-04T11:55:12.683Z,975.97
2019-03-04T11:56:12.695Z,976.10
2019-03-04T11:57:12.673Z,975.99
2019-03-04T11:58:12.649Z,976.21
2019-03-04T11:59:12.641Z,976.11
2019-03-04T12:00:12.635Z,976.13
2019-03-04T12:01:12.641Z,976.25
2019-03-04T12:02:12.642Z,976.44
2019-03-04T12:03:12.600Z,976.23
2019-03-04T12:04:12.589Z,976.32
2019-03-04T12:05:12.573Z,976.18
2019-03-04T12:06:12.567Z,976.29
2019-03-04T12:07:12.573Z,976.31
2019-03-04T12:08:12.545Z,976.28
2019-03-04T12:09:12.545Z,976.35
2019-03-04T12:10:12.536Z,976.33
2019-03-04T12:11:12.532Z,976.34
2019-03-04T12:12:12.501Z,976.38
2019-03-04T12:13:12.491Z,976.41
2019-03-04T12:14:12.515Z,976.42
2019-03-04T12:15:12.532Z,976.46
2019-03-04T12:16:12.458Z,976.43
2019-03-04T12:17:12.513Z,976.64
2019-03-04T12:18:12.436Z,976.52
2019-03-04T12:19:12.448Z,976.49
2019-03-04T12:20:12.449Z,976.48
2019-03-04T12:21:12.412Z,976.61
2019-03-04T12:22:12.420Z,976.64
2019-03-04T12:23:12.404Z,976.73
2019-03-04T12:24:12.376Z,976.64
2019-03-04T12:25:12.372Z,976.55
2019-03-04T12:26:12.348Z,976.49
2019-03-04T12:27:12.340Z,976.49
2019-03-04T12:28:12.356Z,976.51